Time;durP1;ratioP1;P1;durP2;ratioP2;P2;SDS_P1;SDS_P2;PMS_P1;PMS_P2;Temp;Humidity;BMP_temperature;BMP_pressure;BME280_temperature;BME280_humidity;BME280_pressure;Samples;Min_cycle;Max_cycle;Signal;HPM_P1;HPM_P2
2022/06/03 00:00:06;;;;;;;2.60;2.30;;;14.50;99.90;;;14.27;93.19;97278.97;4976214;28;20037;-44
2022/06/03 00:03:07;;;;;;;2.50;2.25;;;14.50;99.90;;;14.23;93.23;97277.44;4975963;28;20026;-42
2022/06/03 00:05:55;;;;;;;2.88;2.50;;;14.40;99.90;;;14.19;93.60;97286.47;4973450;28;20562;-42
2022/06/03 00:08:38;;;;;;;3.42;2.17;;;14.40;99.90;;;14.17;94.02;97285.69;4987434;28;20046;-42
2022/06/03 00:11:31;;;;;;;4.20;2.50;;;14.40;99.90;;;14.13;94.19;97281.50;4962642;28;20038;-42
2022/06/03 00:14:10;;;;;;;;;;;14.30;99.90;;;14.10;94.49;97285.19;4964942;28;20125;-41
2022/06/03 00:16:53;;;;;;;3.00;2.20;;;14.30;99.90;;;14.06;94.83;97277.47;4970184;28;19921;-42
2022/06/03 00:19:52;;;;;;;3.33;2.55;;;14.30;99.90;;;14.03;94.91;97274.97;4970697;28;20034;-41
2022/06/03 00:22:45;;;;;;;3.22;2.40;;;14.20;99.90;;;14.00;95.33;97276.00;4968115;28;20054;-42
2022/06/03 00:25:29;;;;;;;2.80;2.30;;;14.20;99.90;;;13.97;96.08;97272.66;4986240;28;20056;-42
2022/06/03 00:28:28;;;;;;;3.17;2.70;;;14.20;99.90;;;13.89;96.68;97262.44;4965828;28;20105;-42
2022/06/03 00:31:16;;;;;;;3.75;2.65;;;14.10;99.90;;;13.87;97.51;97264.31;4962463;28;20036;-41
2022/06/03 00:34:10;;;;;;;3.17;2.20;;;14.10;99.90;;;13.85;98.12;97267.03;4967043;28;20866;-43
2022/06/03 00:37:23;;;;;;;2.97;2.50;;;14.10;99.90;;;13.86;98.34;97262.63;4966545;28;20039;-43
2022/06/03 00:40:25;;;;;;;2.83;2.30;;;14.00;99.90;;;13.84;98.66;97264.50;4977697;28;20039;-41
2022/06/03 00:43:12;;;;;;;3.92;2.72;;;14.00;99.90;;;13.82;98.91;97259.28;4969672;28;20034;-42
2022/06/03 00:45:59;;;;;;;2.92;2.40;;;14.00;99.90;;;13.80;99.15;97260.28;4962409;28;20036;-41
2022/06/03 00:48:56;;;;;;;3.42;2.60;;;14.00;99.90;;;13.76;99.56;97256.91;4966346;28;20055;-42
2022/06/03 00:51:56;;;;;;;4.85;2.70;;;14.00;99.90;;;13.72;99.92;97258.88;4967232;28;20042;-43
2022/06/03 00:54:52;;;;;;;2.75;2.22;;;13.90;99.90;;;13.69;100.00;97259.06;4969140;28;20061;-44
2022/06/03 00:57:53;;;;;;;3.35;2.83;;;13.80;99.90;;;13.64;100.00;97268.16;4973014;28;20050;-42
2022/06/03 01:00:31;;;;;;;3.70;2.70;;;13.90;99.90;;;13.62;100.00;97262.97;4978451;28;20064;-43
2022/06/03 01:03:12;;;;;;;3.30;2.65;;;13.80;99.90;;;13.56;100.00;97257.94;4980241;28;20494;-44
2022/06/03 01:06:01;;;;;;;2.75;2.47;;;13.80;99.90;;;13.52;100.00;97256.41;4971937;28;20046;-41
2022/06/03 01:08:55;;;;;;;3.58;2.50;;;13.70;99.90;;;13.47;100.00;97250.47;4972854;28;20683;-41
2022/06/03 01:12:10;;;;;;;3.42;2.70;;;13.70;99.90;;;13.43;100.00;97249.78;4974676;28;20053;-44
2022/06/03 01:22:01;;;;;;;3.47;2.83;;;13.60;99.90;;;13.41;100.00;97250.81;4978908;28;20056;-44
2022/06/03 01:24:41;;;;;;;4.22;2.95;;;13.60;99.90;;;13.43;100.00;97256.88;4985430;28;20034;-46
2022/06/03 01:27:46;;;;;;;3.13;2.78;;;13.60;99.90;;;13.44;100.00;97264.75;4982202;28;20701;-47
2022/06/03 01:30:39;;;;;;;3.83;2.90;;;13.60;99.90;;;13.47;100.00;97261.94;4981579;28;20034;-47
2022/06/03 01:34:08;;;;;;;3.05;2.60;;;13.70;99.90;;;13.49;100.00;97257.41;4984557;28;20060;-47
2022/06/03 01:37:01;;;;;;;4.15;2.90;;;13.70;99.90;;;13.49;100.00;97249.47;4947883;28;20031;-44
2022/06/03 01:39:46;;;;;;;4.05;2.80;;;13.70;99.90;;;13.45;100.00;97255.00;4931015;28;20039;-43
2022/06/03 01:42:58;;;;;;;4.45;2.83;;;13.70;99.90;;;13.41;100.00;97261.41;4977417;28;20528;-47
2022/06/03 01:46:20;;;;;;;3.15;2.72;;;13.60;99.90;;;13.35;100.00;97260.78;4976538;28;20045;-44
2022/06/03 01:48:57;;;;;;;3.80;3.17;;;13.60;99.90;;;13.32;100.00;97265.38;4983640;28;20064;-45
2022/06/03 01:51:58;;;;;;;3.30;2.60;;;13.60;99.90;;;13.28;100.00;97266.41;4980316;28;20030;-46
2022/06/03 01:55:07;;;;;;;4.00;3.03;;;13.50;99.90;;;13.24;100.00;97259.56;4985202;28;20040;-44
2022/06/03 01:58:27;;;;;;;3.92;2.88;;;13.50;99.90;;;13.20;100.00;97265.94;4976842;28;20297;-45
2022/06/03 02:01:31;;;;;;;2.97;2.53;;;13.50;99.90;;;13.08;100.00;97262.97;4986614;28;20038;-44
2022/06/03 02:04:37;;;;;;;2.72;2.50;;;13.40;99.90;;;13.03;100.00;97259.69;4990066;28;20034;-47
2022/06/03 02:07:29;;;;;;;3.20;2.90;;;13.30;99.90;;;13.00;100.00;97262.47;4990500;28;20033;-48
2022/06/03 02:10:25;;;;;;;3.67;2.90;;;13.30;99.90;;;12.96;100.00;97259.13;4985328;28;20042;-45
2022/06/03 02:13:06;;;;;;;5.47;3.15;;;13.20;99.90;;;12.96;100.00;97261.78;4989015;28;20047;-46
2022/06/03 02:16:44;;;;;;;3.50;3.05;;;13.20;99.90;;;12.94;100.00;97258.34;4985313;28;20037;-44
2022/06/03 02:20:06;;;;;;;3.60;3.03;;;13.20;99.90;;;12.95;100.00;97256.56;4942096;28;20675;-43
2022/06/03 02:22:52;;;;;;;5.73;3.50;;;13.20;99.90;;;12.96;100.00;97255.63;4982200;28;20045;-45
2022/06/03 02:25:44;;;;;;;6.18;3.50;;;13.20;99.90;;;12.96;100.00;97253.84;4981913;28;20079;-47
2022/06/03 02:28:26;;;;;;;3.20;2.90;;;13.20;99.90;;;13.02;100.00;97255.31;4967460;28;20049;-47
2022/06/03 02:31:19;;;;;;;3.43;3.10;;;13.30;99.90;;;13.02;100.00;97246.53;4997069;28;20042;-44
2022/06/03 02:34:14;;;;;;;3.72;3.17;;;13.30;99.90;;;13.00;100.00;97249.25;4983655;28;20203;-48
2022/06/03 02:36:42;;;;;;;4.47;2.97;;;13.30;99.90;;;12.98;100.00;97251.13;4983584;28;20047;-43
2022/06/03 02:39:59;;;;;;;3.88;2.78;;;13.20;99.90;;;12.99;100.00;97247.50;4985134;28;20097;-43
2022/06/03 02:42:56;;;;;;;3.72;3.05;;;13.20;99.90;;;12.99;100.00;97245.75;4985474;28;20040;-44
2022/06/03 02:45:43;;;;;;;4.45;3.00;;;13.20;99.90;;;13.02;100.00;97243.88;4983525;28;20036;-45
2022/06/03 02:48:15;;;;;;;3.63;2.88;;;13.30;99.90;;;13.02;100.00;97257.13;4979203;28;20034;-43
2022/06/03 02:51:21;;;;;;;3.72;2.80;;;13.20;99.90;;;12.99;100.00;97259.00;4980422;28;20276;-45
2022/06/03 02:54:09;;;;;;;4.03;3.15;;;13.20;99.90;;;12.98;100.00;97251.97;4979190;28;20038;-44
2022/06/03 02:57:10;;;;;;;5.35;3.20;;;13.20;99.90;;;12.95;100.00;97246.81;4980542;28;20121;-45
2022/06/03 03:00:05;;;;;;;4.55;3.00;;;13.20;99.90;;;12.94;100.00;97247.75;4986439;28;20030;-45
2022/06/03 03:03:00;;;;;;;3.05;2.60;;;13.20;99.90;;;12.92;100.00;97252.28;4978443;28;20049;-43
2022/06/03 03:06:15;;;;;;;3.92;2.90;;;13.20;99.90;;;12.82;100.00;97239.56;4979636;28;20814;-48
2022/06/03 03:09:17;;;;;;;3.78;3.00;;;13.20;99.90;;;12.91;100.00;97268.22;4982515;28;20044;-47
2022/06/03 03:12:28;;;;;;;4.97;3.13;;;13.20;99.90;;;12.92;100.00;97267.28;4995027;28;20456;-44
2022/06/03 03:15:25;;;;;;;6.63;2.83;;;13.20;99.90;;;12.92;100.00;97262.88;4984128;28;20802;-47
2022/06/03 03:18:41;;;;;;;4.05;3.08;;;13.20;99.90;;;12.91;100.00;97255.00;4983469;28;20072;-44
2022/06/03 03:21:46;;;;;;;3.92;3.13;;;13.20;99.90;;;12.95;100.00;97256.56;4978202;28;20366;-45
2022/06/03 03:24:49;;;;;;;3.65;2.95;;;13.20;99.90;;;12.95;100.00;97253.91;4980868;28;20045;-46
2022/06/03 03:27:56;;;;;;;4.32;3.13;;;13.20;99.90;;;12.97;100.00;97254.69;4996691;28;20574;-47
2022/06/03 03:30:30;;;;;;;3.63;2.95;;;13.20;99.90;;;12.96;100.00;97250.34;4982480;28;20029;-47
2022/06/03 03:33:14;;;;;;;4.88;3.00;;;13.20;99.90;;;12.95;100.00;97248.59;4976947;28;20034;-49
2022/06/03 03:36:24;;;;;;;4.03;2.90;;;13.20;99.90;;;12.96;100.00;97247.69;4981398;28;20129;-45
2022/06/03 03:39:34;;;;;;;3.75;3.03;;;13.20;99.90;;;12.94;100.00;97250.41;4983025;28;20029;-44
2022/06/03 03:42:23;;;;;;;3.45;2.90;;;13.20;99.90;;;12.96;100.00;97243.25;4983513;28;20037;-46
2022/06/03 03:45:16;;;;;;;3.40;2.83;;;13.20;99.90;;;12.95;100.00;97248.59;4981800;28;20030;-45
2022/06/03 03:48:49;;;;;;;3.10;2.80;;;13.20;99.90;;;12.98;100.00;97262.56;4997647;28;20068;-45
2022/06/03 03:51:34;;;;;;;3.00;2.67;;;13.20;99.90;;;13.01;100.00;97248.31;4950063;28;20054;-45
2022/06/03 03:54:51;;;;;;;4.75;3.28;;;13.20;99.90;;;13.04;100.00;97239.38;4986189;28;20046;-46
2022/06/03 03:58:13;;;;;;;3.88;3.03;;;13.30;99.90;;;13.07;100.00;97242.72;4979416;28;20038;-46
2022/06/03 04:02:00;;;;;;;3.83;3.17;;;13.30;99.90;;;13.10;100.00;97247.88;4981759;28;20034;-46
2022/06/03 04:04:49;;;;;;;3.78;3.20;;;13.40;99.90;;;13.12;100.00;97238.06;4975531;28;20045;-48
2022/06/03 04:07:46;;;;;;;4.28;3.30;;;13.40;99.90;;;13.15;100.00;97243.22;4982913;28;20469;-45
2022/06/03 04:10:54;;;;;;;5.00;2.95;;;13.40;99.90;;;13.14;100.00;97243.28;4981811;28;20477;-45
2022/06/03 04:14:00;;;;;;;3.70;3.30;;;13.40;99.90;;;13.15;100.00;97239.69;4987743;28;20030;-47
2022/06/03 04:17:21;;;;;;;4.70;3.30;;;13.40;99.90;;;13.14;100.00;97236.19;4988601;28;20753;-44
2022/06/03 04:20:38;;;;;;;4.00;3.25;;;13.40;99.90;;;13.14;100.00;97246.78;5000369;28;20800;-45
2022/06/03 04:23:42;;;;;;;3.72;3.10;;;13.40;99.90;;;13.14;100.00;97240.63;4990790;28;20514;-45
2022/06/03 04:26:19;;;;;;;4.03;3.22;;;13.40;99.90;;;13.13;100.00;97239.75;4992072;28;20053;-45
2022/06/03 04:29:34;;;;;;;3.97;3.55;;;13.40;99.90;;;13.14;100.00;97228.25;4995769;28;20379;-46
2022/06/03 04:32:37;;;;;;;4.95;3.50;;;13.40;99.90;;;13.14;100.00;97217.66;4988227;28;20049;-44
2022/06/03 04:35:42;;;;;;;5.85;3.10;;;13.40;99.90;;;13.18;100.00;97227.16;4988215;28;20053;-46
2022/06/03 04:38:53;;;;;;;4.38;3.17;;;13.50;99.90;;;13.32;100.00;97228.28;4989705;28;20041;-47
2022/06/03 04:41:55;;;;;;;4.45;2.90;;;13.60;99.90;;;13.48;100.00;97223.06;4984408;28;20779;-44
2022/06/03 04:45:17;;;;;;;5.50;3.45;;;13.70;99.90;;;13.68;100.00;97225.53;4991292;28;20521;-48
2022/06/03 04:48:01;;;;;;;4.60;3.25;;;13.90;99.90;;;13.83;100.00;97229.16;5009278;28;20068;-44
2022/06/03 04:51:28;;;;;;;3.83;2.97;;;14.00;99.90;;;14.01;100.00;97226.47;4994397;28;20050;-46
2022/06/03 04:54:43;;;;;;;4.82;3.42;;;14.20;99.90;;;14.21;100.00;97226.28;5013792;28;20030;-48
2022/06/03 04:58:01;;;;;;;4.65;3.67;;;14.40;99.90;;;14.43;100.00;97222.44;4990147;28;20036;-48
2022/06/03 05:01:00;;;;;;;7.43;3.90;;;14.60;99.90;;;14.85;100.00;97219.19;4992571;28;20036;-48
2022/06/03 05:03:38;;;;;;;6.68;4.28;;;14.90;99.90;;;15.33;100.00;97219.09;4985531;28;20451;-48
2022/06/03 05:06:43;;;;;;;5.38;3.45;;;15.30;99.90;;;16.26;99.76;97226.81;4985819;28;20395;-48
2022/06/03 05:09:43;;;;;;;3.97;3.28;;;15.70;99.90;;;17.89;91.69;97229.47;4990508;28;20042;-48
2022/06/03 05:12:11;;;;;;;3.85;3.33;;;16.80;99.90;;;19.36;77.01;97233.19;4994659;28;20048;-48
2022/06/03 05:15:01;;;;;;;7.95;3.92;;;17.90;99.90;;;20.52;70.01;97242.06;4992107;28;20354;-47
2022/06/03 05:18:16;;;;;;;4.38;3.40;;;18.80;99.90;;;21.65;62.59;97238.31;4988301;28;20050;-46
2022/06/03 05:21:31;;;;;;;3.40;2.70;;;19.80;99.90;;;22.55;58.28;97239.53;4916553;29;20277;-48
2022/06/03 05:24:27;;;;;;;4.53;3.25;;;20.60;99.90;;;23.23;55.66;97240.59;4993408;28;20026;-46
2022/06/03 05:27:37;;;;;;;4.40;3.20;;;21.30;99.90;;;23.35;54.13;97243.16;4987127;28;20030;-48
2022/06/03 05:30:30;;;;;;;3.97;2.58;;;21.80;99.90;;;23.15;55.37;97236.91;4994427;28;20041;-46
2022/06/03 05:33:26;;;;;;;2.33;2.13;;;21.80;99.90;;;22.52;57.95;97235.28;4992992;28;20109;-48
2022/06/03 05:36:25;;;;;;;5.07;3.08;;;21.60;99.90;;;21.65;59.02;97233.78;4991270;28;20045;-47
2022/06/03 05:39:28;;;;;;;4.25;2.90;;;21.10;99.90;;;20.93;61.45;97215.63;4991759;28;20046;-48
2022/06/03 05:42:36;;;;;;;5.07;3.00;;;20.70;99.90;;;20.60;64.45;97241.44;4994229;28;20481;-46
2022/06/03 05:45:40;;;;;;;6.70;3.17;;;20.30;99.90;;;20.23;65.25;97239.03;4993801;28;20030;-47
2022/06/03 05:48:48;;;;;;;5.80;3.95;;;20.00;99.90;;;20.00;66.90;97247.03;4993892;28;20470;-49
2022/06/03 05:51:34;;;;;;;6.47;3.80;;;19.80;99.90;;;19.83;66.83;97248.34;5004696;28;20548;-46
2022/06/03 05:54:16;;;;;;;4.38;3.60;;;19.70;99.90;;;19.68;68.39;97249.47;4988049;28;20041;-47
2022/06/03 05:57:11;;;;;;;7.25;3.55;;;19.60;99.90;;;19.53;69.60;97248.84;4991517;28;20037;-47
2022/06/03 06:00:12;;;;;;;15.50;3.47;;;19.50;99.90;;;19.30;70.38;97245.22;5011366;28;20512;-46
2022/06/03 06:02:57;;;;;;;7.32;3.65;;;19.30;99.90;;;19.16;71.15;97242.72;4989146;28;20044;-48
2022/06/03 06:05:52;;;;;;;6.65;4.50;;;19.20;99.90;;;19.02;72.13;97236.59;4997798;28;20486;-47
2022/06/03 06:08:55;;;;;;;4.43;3.90;;;19.00;99.90;;;19.05;72.73;97235.50;4992403;28;20112;-49
2022/06/03 06:11:35;;;;;;;5.30;3.60;;;19.10;99.90;;;19.14;72.66;97234.81;4991206;28;20044;-48
2022/06/03 06:14:34;;;;;;;4.78;3.78;;;19.10;99.90;;;19.26;73.05;97233.91;5008381;28;20494;-49
2022/06/03 06:17:45;;;;;;;5.63;4.15;;;19.20;99.90;;;19.35;72.89;97231.50;4992245;28;20038;-47
2022/06/03 06:20:58;;;;;;;6.35;3.88;;;19.30;99.90;;;19.36;72.51;97220.72;4982760;28;20425;-46
2022/06/03 06:23:43;;;;;;;5.18;4.03;;;19.40;99.90;;;19.34;72.73;97224.44;4994835;28;20125;-49
2022/06/03 06:26:22;;;;;;;5.38;3.53;;;19.40;99.90;;;19.26;73.53;97228.53;5007997;28;20773;-46
2022/06/03 06:29:23;;;;;;;5.82;4.50;;;19.30;99.90;;;19.26;74.22;97233.06;4993121;28;20453;-48
2022/06/03 06:32:36;;;;;;;6.38;4.13;;;19.30;99.90;;;19.34;73.86;97227.13;4989729;28;20126;-49
2022/06/03 06:35:34;;;;;;;5.13;3.90;;;19.40;99.90;;;19.54;73.08;97223.81;4992252;28;20042;-48
2022/06/03 06:38:34;;;;;;;8.88;5.18;;;19.60;99.90;;;19.71;72.54;97222.50;4971478;28;20050;-46
2022/06/03 06:41:10;;;;;;;5.13;4.18;;;19.80;99.90;;;19.80;72.38;97220.97;5008305;28;20037;-49
2022/06/03 06:43:47;;;;;;;7.38;5.20;;;19.90;99.90;;;19.91;70.06;97228.16;4994535;28;20038;-45
2022/06/03 06:46:32;;;;;;;8.35;4.72;;;20.00;99.90;;;20.11;69.77;97221.25;5009933;28;20068;-44
2022/06/03 06:49:35;;;;;;;6.47;3.65;;;20.20;99.90;;;20.38;69.63;97211.03;4984981;28;20030;-42
2022/06/03 06:52:40;;;;;;;8.27;4.57;;;20.40;99.90;;;20.55;67.73;97217.72;4990781;28;20045;-47
2022/06/03 06:55:12;;;;;;;6.65;4.57;;;20.60;99.90;;;20.64;68.10;97226.00;4970562;28;20038;-46
2022/06/03 06:57:57;;;;;;;5.93;4.60;;;20.70;99.90;;;20.82;67.03;97215.63;4990881;28;20655;-49
2022/06/03 07:00:28;;;;;;;4.75;3.30;;;20.90;99.90;;;21.01;66.28;97221.19;4992616;28;20037;-46
2022/06/03 07:03:05;;;;;;;6.18;4.20;;;21.00;99.90;;;21.04;65.61;97212.06;4989455;28;20026;-47
2022/06/03 07:05:39;;;;;;;5.45;4.00;;;21.10;99.90;;;21.16;65.48;97214.56;4991241;28;20025;-47
2022/06/03 07:08:30;;;;;;;5.00;3.40;;;21.20;99.90;;;21.32;65.26;97214.16;4988894;28;20034;-48
2022/06/03 07:11:19;;;;;;;4.18;3.63;;;21.30;99.90;;;21.44;64.86;97216.78;4993923;28;20054;-47
2022/06/03 07:14:03;;;;;;;6.70;3.53;;;21.40;99.90;;;21.54;65.20;97226.63;4987796;28;20037;-48
2022/06/03 07:20:00;;;;;;;8.20;3.88;;;21.70;99.90;;;21.69;62.85;97203.00;5006525;28;20375;-44
2022/06/03 07:22:45;;;;;;;3.83;3.03;;;21.70;99.90;;;21.80;63.45;97207.47;5006154;28;20407;-47
2022/06/03 07:25:28;;;;;;;4.03;3.53;;;21.80;99.90;;;21.78;62.12;97208.59;5017893;28;20319;-47
2022/06/03 07:28:22;;;;;;;4.45;3.25;;;21.90;99.90;;;21.87;62.23;97205.09;5002158;28;20441;-44
2022/06/03 07:31:02;;;;;;;8.10;3.78;;;21.90;99.90;;;21.91;62.56;97202.03;5003325;28;20044;-47
2022/06/03 07:33:31;;;;;;;4.60;3.67;;;22.00;99.90;;;22.00;61.89;97191.47;4997456;28;20727;-47
2022/06/03 07:36:21;;;;;;;5.72;4.40;;;22.00;99.90;;;21.98;61.32;97196.97;4991079;28;20030;-49
2022/06/03 07:39:30;;;;;;;8.38;4.07;;;22.10;99.90;;;22.16;61.99;97197.19;4984083;28;20045;-46
2022/06/03 07:42:20;;;;;;;5.20;3.67;;;22.20;99.90;;;22.35;61.52;97192.94;4998093;28;20034;-44
2022/06/03 07:45:13;;;;;;;4.13;3.22;;;22.40;99.90;;;22.52;62.00;97192.28;5000688;28;20221;-43
2022/06/03 07:47:39;;;;;;;5.72;3.92;;;22.60;99.90;;;22.55;60.23;97194.69;4999734;28;20033;-46
2022/06/03 07:50:15;;;;;;;4.05;2.72;;;22.60;99.60;;;22.60;59.73;97180.88;4994696;28;20049;-46
2022/06/03 07:53:33;;;;;;;5.75;3.60;;;22.60;99.40;;;22.83;59.96;97176.97;4998469;28;20502;-48
2022/06/03 07:55:59;;;;;;;6.40;3.67;;;22.90;99.40;;;22.98;58.94;97172.00;4965746;28;20041;-45
2022/06/03 07:58:30;;;;;;;6.03;3.65;;;23.00;99.20;;;23.10;58.51;97178.16;4985517;28;20049;-48
2022/06/03 08:00:56;;;;;;;4.13;3.20;;;23.10;98.80;;;23.25;58.61;97175.88;4995312;28;20022;-46
2022/06/03 08:03:34;;;;;;;3.95;3.33;;;23.20;98.90;;;23.35;57.06;97163.28;5003519;28;20511;-44
2022/06/03 08:06:02;;;;;;;5.70;3.28;;;23.30;98.10;;;23.36;57.17;97159.59;4987989;28;20129;-48
2022/06/03 08:11:18;;;;;;;6.38;3.63;;;23.40;98.20;;;23.43;57.85;97144.56;4990151;28;20136;-46
2022/06/03 08:13:54;;;;;;;4.65;3.10;;;23.50;98.40;;;23.47;58.39;97150.53;4998959;28;20363;-46
2022/06/03 08:16:32;;;;;;;6.80;3.63;;;23.50;98.40;;;23.46;57.58;97148.00;5000004;28;20234;-47
2022/06/03 08:19:21;;;;;;;3.97;3.17;;;23.50;97.90;;;23.50;56.23;97144.84;4992201;28;20034;-48
2022/06/03 08:22:00;;;;;;;4.20;3.58;;;23.60;97.60;;;23.53;56.89;97141.03;5000156;28;20030;-48
2022/06/03 08:24:30;;;;;;;3.20;2.83;;;23.50;97.70;;;23.57;57.57;97142.44;5003616;28;20030;-44
2022/06/03 08:27:05;;;;;;;6.72;3.80;;;23.60;97.50;;;23.57;57.25;97147.84;4994426;28;20041;-46
2022/06/03 08:29:37;;;;;;;4.43;3.10;;;23.60;97.50;;;23.65;55.80;97139.88;4993176;28;21947;-43
2022/06/03 08:32:09;;;;;;;6.07;3.22;;;23.60;97.00;;;23.67;56.52;97137.03;4990892;28;20033;-44
2022/06/03 08:34:42;;;;;;;3.13;2.83;;;23.70;97.30;;;23.75;56.66;97140.69;4991877;28;20161;-43
2022/06/03 08:37:13;;;;;;;6.55;3.80;;;23.70;97.20;;;23.79;55.90;97139.41;4994599;28;20026;-47
2022/06/03 08:39:40;;;;;;;6.05;4.47;;;23.80;97.10;;;23.81;56.39;97139.28;4996149;28;20180;-44
2022/06/03 08:42:21;;;;;;;3.75;3.13;;;23.80;97.00;;;23.95;55.34;97128.06;5004250;28;20030;-41
2022/06/03 08:45:10;;;;;;;4.93;3.13;;;23.90;96.60;;;23.98;54.74;97125.06;4995457;28;20612;-46
2022/06/03 08:47:42;;;;;;;3.85;3.28;;;24.00;96.30;;;24.04;55.52;97126.31;4994775;28;20037;-41
2022/06/03 08:50:36;;;;;;;4.47;3.45;;;24.00;96.20;;;24.11;54.63;97122.03;4996739;28;20025;-46
2022/06/03 08:53:43;;;;;;;4.20;3.17;;;24.10;96.10;;;24.16;57.10;97117.06;4994844;28;20089;-43
2022/06/03 08:56:16;;;;;;;7.78;3.30;;;24.20;96.20;;;24.36;54.92;97122.34;4993317;28;20084;-42
2022/06/03 08:59:00;;;;;;;6.35;3.15;;;24.40;96.00;;;24.43;52.97;97118.06;4997700;28;20668;-46
2022/06/03 09:01:34;;;;;;;5.15;3.33;;;24.50;95.60;;;24.55;52.67;97107.97;5007064;28;20045;-43
2022/06/03 09:04:19;;;;;;;4.13;2.67;;;24.50;95.10;;;24.62;52.86;97100.97;4999797;28;20041;-41
2022/06/03 09:07:10;;;;;;;4.10;2.60;;;24.60;95.10;;;24.67;53.38;97087.00;4996898;28;20060;-41
2022/06/03 09:10:10;;;;;;;4.38;3.38;;;24.70;95.10;;;24.75;52.89;97089.81;5000285;28;20261;-42
2022/06/03 09:13:11;;;;;;;6.90;3.10;;;24.70;95.00;;;24.78;52.03;97084.09;4988915;28;20041;-43
2022/06/03 09:15:40;;;;;;;6.13;3.10;;;24.80;94.40;;;24.72;51.61;97076.63;5012219;28;20139;-47
2022/06/03 09:18:32;;;;;;;5.00;3.38;;;24.80;93.90;;;24.73;51.47;97078.34;4993011;28;20132;-43
2022/06/03 09:21:07;;;;;;;5.57;3.00;;;24.80;93.90;;;24.82;50.99;97077.41;4991616;28;20041;-43
2022/06/03 09:23:42;;;;;;;3.28;2.38;;;24.80;93.70;;;24.91;52.85;97084.56;4990578;28;20049;-43
2022/06/03 09:26:39;;;;;;;3.28;2.47;;;24.90;93.80;;;25.05;50.60;97079.63;4998246;28;20032;-45
2022/06/03 09:29:10;;;;;;;3.13;2.83;;;25.00;93.50;;;25.31;50.28;97077.84;4996956;28;20052;-45
2022/06/03 09:31:38;;;;;;;3.72;3.10;;;25.30;93.10;;;25.71;49.12;97072.88;4992505;28;20569;-42
2022/06/03 09:34:07;;;;;;;5.40;3.28;;;25.70;92.60;;;25.90;48.07;97080.75;4995889;28;20073;-43
2022/06/03 09:36:33;;;;;;;4.18;3.28;;;26.00;91.80;;;26.08;47.81;97088.81;5007564;28;20057;-40
2022/06/03 09:39:13;;;;;;;6.15;3.13;;;26.20;91.70;;;26.17;47.32;97088.84;5002949;28;20131;-46
2022/06/03 09:41:46;;;;;;;4.20;3.30;;;26.20;90.90;;;26.19;48.28;97084.13;4993482;28;20034;-45
2022/06/03 09:44:17;;;;;;;8.05;3.20;;;26.30;91.50;;;26.19;47.37;97089.53;4993033;28;20052;-47
2022/06/03 09:46:43;;;;;;;3.45;2.75;;;26.20;91.10;;;26.05;47.04;97101.78;4990304;28;20046;-45
2022/06/03 09:49:10;;;;;;;10.50;3.20;;;26.00;90.50;;;25.95;48.58;97091.13;4992393;28;20029;-45
2022/06/03 09:51:57;;;;;;;5.30;3.15;;;26.00;91.00;;;25.89;48.52;97084.44;4996362;28;20080;-47
2022/06/03 09:54:39;;;;;;;4.90;2.90;;;25.90;91.20;;;25.88;48.30;97079.22;4993017;28;20038;-47
2022/06/03 09:57:24;;;;;;;3.40;3.03;;;25.90;91.20;;;25.91;48.21;97073.50;4994831;28;20173;-45
2022/06/03 10:00:08;;;;;;;4.22;3.45;;;25.90;91.10;;;25.94;48.18;97081.31;4993909;28;20029;-44
2022/06/03 10:02:35;;;;;;;4.50;2.97;;;26.00;90.80;;;26.06;48.24;97073.78;4993849;28;20116;-44
2022/06/03 10:05:06;;;;;;;8.43;3.67;;;26.10;90.80;;;26.33;47.44;97069.16;4995023;28;20073;-46
2022/06/03 10:07:33;;;;;;;5.68;3.50;;;26.40;90.60;;;26.77;47.85;97071.66;4985898;28;20037;-45
2022/06/03 10:12:49;;;;;;;4.78;3.25;;;27.20;90.50;;;27.58;46.05;97081.69;5004007;28;20096;-47
2022/06/03 10:15:46;;;;;;;4.55;2.97;;;27.60;89.40;;;28.05;44.67;97090.03;4992235;28;20034;-47
2022/06/03 10:18:46;;;;;;;3.65;3.20;;;28.00;89.00;;;28.62;42.32;97078.97;4992886;28;20038;-48
2022/06/03 10:21:12;;;;;;;4.00;3.13;;;28.50;83.90;;;29.00;41.72;97086.38;4993075;28;20039;-48
2022/06/03 10:23:44;;;;;;;3.25;2.95;;;29.00;82.50;;;29.31;40.55;97078.19;4994895;28;20366;-47
2022/06/03 10:26:23;;;;;;;5.38;3.20;;;29.30;81.60;;;29.18;40.25;97065.25;4994885;28;20025;-44
2022/06/03 10:28:53;;;;;;;6.05;3.50;;;29.40;79.30;;;29.18;40.91;97070.66;5006950;28;20030;-45
2022/06/03 10:31:27;;;;;;;4.45;2.83;;;29.20;79.30;;;29.17;40.67;97068.13;4994947;28;20033;-44
2022/06/03 10:33:56;;;;;;;3.47;2.90;;;29.20;79.20;;;29.17;40.59;97066.25;4992134;28;20046;-44
2022/06/03 10:36:34;;;;;;;3.42;3.10;;;29.20;78.30;;;29.12;43.05;97066.75;4996582;28;20042;-43
2022/06/03 10:39:00;;;;;;;4.22;3.30;;;29.30;80.10;;;29.25;42.19;97062.63;5002993;28;20034;-46
2022/06/03 10:41:43;;;;;;;6.82;3.10;;;29.40;80.60;;;29.36;41.01;97064.91;5000081;28;20085;-46
2022/06/03 10:44:21;;;;;;;4.82;3.13;;;29.50;77.90;;;29.26;40.70;97072.47;4995741;28;20038;-45
2022/06/03 10:46:58;;;;;;;5.28;3.45;;;29.60;76.50;;;29.09;39.77;97068.97;4999442;28;20502;-43
2022/06/03 10:49:28;;;;;;;3.65;2.95;;;29.60;74.70;;;29.31;40.11;97057.31;4997731;28;20042;-43
2022/06/03 11:03:07;;;;;;;5.05;2.88;;;30.40;72.20;;;30.03;38.05;97066.78;4995978;28;20048;-46
2022/06/03 11:05:37;;;;;;;3.05;2.75;;;30.40;70.00;;;29.91;39.03;97075.59;4997451;28;20042;-46
2022/06/03 11:08:10;;;;;;;5.07;2.95;;;30.20;70.90;;;29.61;39.53;97081.81;4987723;28;20068;-44
2022/06/03 11:10:49;;;;;;;3.83;2.50;;;29.80;72.60;;;29.26;40.02;97080.59;4992125;28;20502;-46
2022/06/03 11:13:31;;;;;;;2.80;2.50;;;29.40;73.00;;;28.88;40.10;97094.94;4995381;28;20035;-43
2022/06/03 11:16:15;;;;;;;3.65;3.13;;;29.00;73.50;;;28.35;41.08;97110.09;4998262;28;20072;-45
2022/06/03 11:18:42;;;;;;;6.43;3.10;;;28.50;73.80;;;27.75;42.98;97109.56;4994026;28;20049;-44
2022/06/03 11:21:29;;;;;;;4.35;3.00;;;27.90;76.80;;;27.17;43.75;97113.28;4992822;28;20494;-43
2022/06/03 11:23:58;;;;;;;3.58;2.80;;;27.30;77.10;;;26.80;45.66;97115.44;4988861;28;20050;-45
2022/06/03 11:26:43;;;;;;;4.65;2.53;;;26.90;79.50;;;26.40;47.15;97117.00;4996565;28;20109;-43
2022/06/03 11:29:17;;;;;;;5.18;3.08;;;26.50;81.50;;;26.10;47.37;97113.81;4994586;28;20126;-46
2022/06/03 11:31:47;;;;;;;4.07;2.80;;;26.20;82.20;;;25.95;49.43;97101.94;5006227;28;20026;-43
2022/06/03 11:34:51;;;;;;;3.90;2.70;;;26.00;84.30;;;25.66;49.47;97092.28;4992166;28;20067;-41
2022/06/03 11:37:40;;;;;;;3.67;2.85;;;25.80;84.80;;;25.46;50.06;97099.69;5005883;28;20553;-42
2022/06/03 11:40:39;;;;;;;4.25;2.58;;;25.50;85.80;;;25.22;50.72;97103.03;4988844;28;20402;-46
2022/06/03 11:43:19;;;;;;;2.50;2.30;;;25.30;86.70;;;25.06;51.91;97106.44;4981082;28;20544;-42
2022/06/03 11:45:44;;;;;;;3.47;2.80;;;25.10;87.70;;;24.92;53.47;97099.72;5001784;28;20044;-42
2022/06/03 11:48:31;;;;;;;2.65;2.30;;;24.90;89.30;;;24.86;54.17;97102.22;5007858;28;20021;-41
2022/06/03 11:50:59;;;;;;;3.53;2.42;;;24.80;90.00;;;24.81;54.70;97091.88;5012120;28;20053;-43
2022/06/03 11:53:30;;;;;;;4.63;2.30;;;24.80;90.20;;;24.80;56.98;97081.25;5007780;28;20105;-46
2022/06/03 11:56:00;;;;;;;5.68;2.80;;;24.70;91.30;;;24.73;60.66;97070.25;5021902;28;20038;-46
2022/06/03 11:58:57;;;;;;;4.70;2.63;;;24.70;92.80;;;24.74;61.62;97072.75;5025672;28;20108;-44
2022/06/03 12:02:10;;;;;;;6.43;3.08;;;24.70;93.40;;;24.95;62.86;97069.75;5025263;28;20032;-41
2022/06/03 12:04:44;;;;;;;5.82;2.95;;;24.80;93.70;;;25.30;60.59;97068.06;4948752;29;20556;-44
2022/06/03 12:07:44;;;;;;;3.85;2.70;;;25.20;93.20;;;25.80;59.26;97058.41;4949921;28;20143;-46
2022/06/03 12:10:24;;;;;;;4.03;2.58;;;25.60;92.90;;;26.27;57.90;97044.47;4976516;28;20454;-45
2022/06/03 12:13:16;;;;;;;4.72;2.88;;;26.20;92.70;;;26.65;56.87;97036.81;5007103;28;20495;-43
2022/06/03 12:15:58;;;;;;;5.03;2.60;;;26.60;92.40;;;26.92;54.53;97036.66;5005086;28;20034;-42
2022/06/03 12:18:34;;;;;;;4.20;2.90;;;26.90;91.60;;;27.17;53.50;97030.25;5010228;28;20022;-45